Time;durP1;ratioP1;P1;durP2;ratioP2;P2;SDS_P1;SDS_P2;PMS_P1;PMS_P2;Temp;Humidity;BMP_temperature;BMP_pressure;BME280_temperature;BME280_humidity;BME280_pressure;Samples;Min_cycle;Max_cycle;Signal;HPM_P1;HPM_P2
2022/07/19 00:00:20;;;;;;;3.72;2.70;;;23.10;53.50;;;;;;5133034;27;20188;-51
2022/07/19 00:02:45;;;;;;;2.28;2.05;;;23.10;53.50;;;;;;5133380;28;20666;-51
2022/07/19 00:05:11;;;;;;;2.33;2.13;;;23.10;53.50;;;;;;5133697;28;20267;-54
2022/07/19 00:07:36;;;;;;;2.35;2.15;;;23.10;53.60;;;;;;5132985;28;20168;-55
2022/07/19 00:10:03;;;;;;;2.38;2.17;;;23.10;53.60;;;;;;5133634;28;20309;-51
2022/07/19 00:12:29;;;;;;;2.60;2.25;;;23.10;53.60;;;;;;5133697;28;20176;-51
2022/07/19 00:14:54;;;;;;;2.63;2.42;;;23.00;53.60;;;;;;5132962;28;20172;-54
2022/07/19 00:17:20;;;;;;;2.92;2.30;;;23.00;53.60;;;;;;5133596;28;20184;-53
2022/07/19 00:19:45;;;;;;;2.30;2.10;;;23.00;53.60;;;;;;5133611;28;20172;-53
2022/07/19 00:22:11;;;;;;;2.35;2.15;;;23.00;53.60;;;;;;5132847;28;20176;-53
2022/07/19 00:24:36;;;;;;;2.35;1.83;;;23.00;53.60;;;;;;5133581;28;20177;-53
2022/07/19 00:27:02;;;;;;;2.58;2.38;;;23.00;53.60;;;;;;5132992;28;20607;-53
2022/07/19 00:29:27;;;;;;;2.30;2.10;;;23.00;53.70;;;;;;5133024;28;20667;-49
2022/07/19 00:31:53;;;;;;;2.30;2.10;;;23.00;53.70;;;;;;5133523;28;20183;-53
2022/07/19 00:34:18;;;;;;;1.98;1.88;;;23.00;53.70;;;;;;5133227;28;20164;-47
2022/07/19 00:36:44;;;;;;;2.83;2.50;;;23.00;53.70;;;;;;5132547;28;20204;-52
2022/07/19 00:39:10;;;;;;;2.42;2.22;;;23.00;53.70;;;;;;5133567;28;20172;-51
2022/07/19 00:41:44;;;;;;;2.40;2.20;;;23.00;53.70;;;;;;5133414;28;20500;-49
2022/07/19 00:44:10;;;;;;;3.20;2.28;;;23.00;53.70;;;;;;5132864;28;20228;-50
2022/07/19 00:46:36;;;;;;;2.50;2.30;;;23.00;53.80;;;;;;5133474;28;20263;-49
2022/07/19 00:49:01;;;;;;;2.42;2.22;;;23.00;53.80;;;;;;5133131;27;20187;-49
2022/07/19 00:51:28;;;;;;;3.10;2.10;;;23.00;53.80;;;;;;5136711;27;20176;-48
2022/07/19 00:53:54;;;;;;;2.45;2.25;;;23.00;53.80;;;;;;5137265;27;20179;-53
2022/07/19 00:56:19;;;;;;;2.00;1.90;;;23.00;53.80;;;;;;5118021;27;20172;-45
2022/07/19 00:58:45;;;;;;;2.47;2.28;;;23.00;53.80;;;;;;5118579;27;20209;-50
2022/07/19 01:01:10;;;;;;;2.75;2.50;;;23.00;53.90;;;;;;5118667;27;20212;-47
2022/07/19 01:03:37;;;;;;;3.42;2.08;;;23.00;53.90;;;;;;5136124;27;20743;-51
2022/07/19 01:06:03;;;;;;;2.30;2.00;;;23.00;53.90;;;;;;5136811;27;20180;-46
2022/07/19 01:08:29;;;;;;;3.67;1.90;;;23.00;53.90;;;;;;5136844;27;20181;-47
2022/07/19 01:10:54;;;;;;;2.25;2.05;;;23.00;54.00;;;;;;5117922;27;20169;-48
2022/07/19 01:13:20;;;;;;;2.08;1.92;;;23.00;54.00;;;;;;5136909;27;20180;-46
2022/07/19 01:15:45;;;;;;;3.15;2.38;;;23.00;54.00;;;;;;5136631;27;20192;-48
2022/07/19 01:18:11;;;;;;;2.20;2.00;;;23.00;54.00;;;;;;5136018;27;20654;-52
2022/07/19 01:20:36;;;;;;;2.53;2.33;;;23.00;54.00;;;;;;5136628;27;20541;-51
2022/07/19 01:23:02;;;;;;;2.30;2.10;;;23.00;54.00;;;;;;5136274;27;20207;-51
2022/07/19 01:25:30;;;;;;;3.40;2.25;;;23.00;54.00;;;;;;5136269;27;20225;-51
2022/07/19 01:27:55;;;;;;;3.22;2.58;;;23.00;54.10;;;;;;5136153;27;20638;-49
2022/07/19 01:30:24;;;;;;;2.38;2.17;;;23.00;54.00;;;;;;5136256;27;20213;-50
2022/07/19 01:32:50;;;;;;;2.20;2.03;;;23.00;54.10;;;;;;5135667;27;20206;-50
2022/07/19 01:35:16;;;;;;;2.35;2.15;;;23.00;54.10;;;;;;5136576;27;20177;-50
2022/07/19 01:37:41;;;;;;;2.40;2.20;;;23.00;54.10;;;;;;5136241;27;20217;-47
2022/07/19 01:40:09;;;;;;;2.97;2.08;;;23.00;54.10;;;;;;5135861;27;20228;-47
2022/07/19 01:42:34;;;;;;;2.17;2.08;;;23.00;54.20;;;;;;5136621;27;20220;-48
2022/07/19 01:45:00;;;;;;;2.65;2.40;;;23.00;54.20;;;;;;5135545;27;20567;-48
2022/07/19 01:47:25;;;;;;;2.30;2.10;;;23.00;54.20;;;;;;5135754;27;20169;-50
2022/07/19 01:49:51;;;;;;;2.22;2.03;;;23.00;54.10;;;;;;5135967;27;20168;-53
2022/07/19 01:52:16;;;;;;;2.53;2.25;;;23.00;54.20;;;;;;5135994;27;20172;-50
2022/07/19 01:54:42;;;;;;;2.13;1.98;;;23.00;54.20;;;;;;5135493;27;20173;-52
2022/07/19 01:57:07;;;;;;;2.67;2.40;;;23.00;54.20;;;;;;5136097;27;20285;-51
2022/07/19 01:59:35;;;;;;;2.60;2.08;;;23.00;54.20;;;;;;5135334;27;20196;-49
2022/07/19 02:02:01;;;;;;;2.55;2.20;;;23.00;54.20;;;;;;5135655;27;20180;-49
2022/07/19 02:04:26;;;;;;;2.38;2.17;;;22.90;54.10;;;;;;5135688;27;20235;-47
2022/07/19 02:06:52;;;;;;;2.53;2.33;;;22.90;54.20;;;;;;5135145;27;20538;-48
2022/07/19 02:09:17;;;;;;;2.40;2.20;;;22.90;54.20;;;;;;5135879;27;20259;-52
2022/07/19 02:11:43;;;;;;;2.40;2.08;;;23.00;54.30;;;;;;5135606;27;20588;-52
2022/07/19 02:14:09;;;;;;;2.72;2.53;;;22.90;54.20;;;;;;5134973;27;20650;-51
2022/07/19 02:16:35;;;;;;;2.63;2.42;;;23.00;54.30;;;;;;5135524;27;20700;-51
2022/07/19 02:19:00;;;;;;;2.70;1.98;;;23.00;54.30;;;;;;5135233;27;20225;-50
2022/07/19 02:21:26;;;;;;;2.03;1.88;;;22.90;54.20;;;;;;5135079;27;20176;-50
2022/07/19 02:23:51;;;;;;;2.90;2.35;;;23.00;54.30;;;;;;5135333;27;20291;-50
2022/07/19 02:26:17;;;;;;;2.63;2.42;;;23.00;54.30;;;;;;5135216;27;20593;-49
2022/07/19 02:28:43;;;;;;;2.38;2.17;;;22.90;54.20;;;;;;5134830;27;20169;-49
2022/07/19 02:31:08;;;;;;;2.85;2.33;;;22.90;54.20;;;;;;5135289;27;20177;-51
2022/07/19 02:33:34;;;;;;;2.45;2.25;;;22.90;54.20;;;;;;5135028;27;20176;-47
2022/07/19 02:35:59;;;;;;;2.45;2.00;;;22.90;54.30;;;;;;5134532;27;20211;-50
2022/07/19 02:38:25;;;;;;;2.42;2.22;;;22.90;54.30;;;;;;5135389;27;20176;-52
2022/07/19 02:40:50;;;;;;;2.63;2.38;;;22.90;54.30;;;;;;5134968;27;20168;-50
2022/07/19 02:43:16;;;;;;;2.50;2.30;;;22.90;54.40;;;;;;5134566;27;20211;-47
2022/07/19 02:45:41;;;;;;;2.40;2.20;;;22.90;54.30;;;;;;5134887;27;20168;-47
2022/07/19 02:48:08;;;;;;;2.30;2.10;;;22.90;54.30;;;;;;5134703;27;20275;-52
2022/07/19 02:50:34;;;;;;;2.83;2.40;;;22.90;54.30;;;;;;5134591;27;20180;-50
2022/07/19 02:53:00;;;;;;;2.42;2.22;;;22.90;54.40;;;;;;5134746;27;20253;-51
2022/07/19 02:55:25;;;;;;;2.22;2.00;;;22.90;54.30;;;;;;5134707;27;20173;-49
2022/07/19 02:57:51;;;;;;;2.40;2.20;;;22.90;54.40;;;;;;5134248;27;20176;-52
2022/07/19 03:00:16;;;;;;;2.47;2.28;;;22.90;54.40;;;;;;5116430;27;20168;-53
2022/07/19 03:02:42;;;;;;;2.47;2.28;;;22.90;54.30;;;;;;5134252;27;20291;-51
2022/07/19 03:05:08;;;;;;;2.40;2.20;;;22.90;54.40;;;;;;5133958;27;20228;-53
2022/07/19 03:07:33;;;;;;;2.20;2.05;;;22.90;54.40;;;;;;5134848;27;20213;-54
2022/07/19 03:09:59;;;;;;;2.55;2.35;;;22.90;54.40;;;;;;5133670;27;20183;-49
2022/07/19 03:12:24;;;;;;;2.08;1.92;;;22.90;54.40;;;;;;5134058;27;20507;-52
2022/07/19 03:14:50;;;;;;;2.67;2.20;;;22.90;54.40;;;;;;5134061;27;20703;-49
2022/07/19 03:17:15;;;;;;;2.40;2.20;;;22.90;54.40;;;;;;5133558;27;20183;-49
2022/07/19 03:19:41;;;;;;;2.42;2.22;;;22.90;54.40;;;;;;5134495;27;20177;-52
2022/07/19 03:22:06;;;;;;;2.30;2.10;;;22.90;54.40;;;;;;5134368;27;20172;-52
2022/07/19 03:24:32;;;;;;;2.58;2.38;;;22.90;54.40;;;;;;5133537;27;20208;-51
2022/07/19 03:26:57;;;;;;;2.55;2.35;;;22.90;54.40;;;;;;5134144;27;20177;-50
2022/07/19 03:29:23;;;;;;;2.50;2.30;;;22.90;54.40;;;;;;5133952;27;20168;-48
2022/07/19 03:31:48;;;;;;;2.92;2.30;;;22.90;54.40;;;;;;5133499;27;20165;-46
2022/07/19 03:34:14;;;;;;;2.05;1.95;;;22.90;54.40;;;;;;5134296;27;20173;-50
2022/07/19 03:36:39;;;;;;;2.53;2.30;;;22.90;54.40;;;;;;5133933;27;20305;-49
2022/07/19 03:39:05;;;;;;;2.30;2.20;;;22.90;54.40;;;;;;5133613;27;20196;-48
2022/07/19 03:41:31;;;;;;;2.17;1.98;;;22.90;54.50;;;;;;5134293;27;20172;-51
2022/07/19 03:43:56;;;;;;;1.98;1.88;;;22.90;54.40;;;;;;5133223;27;20290;-45
2022/07/19 03:46:22;;;;;;;2.47;2.28;;;22.90;54.40;;;;;;5133458;27;20262;-52
2022/07/19 03:48:48;;;;;;;2.47;2.30;;;22.90;54.40;;;;;;5133658;27;20169;-50
2022/07/19 03:51:13;;;;;;;2.20;2.10;;;22.90;54.40;;;;;;5133723;27;20168;-50
2022/07/19 03:53:39;;;;;;;2.35;2.15;;;22.90;54.40;;;;;;5133315;27;20176;-46
2022/07/19 03:56:04;;;;;;;2.65;2.10;;;22.90;54.40;;;;;;5133893;27;20173;-51
2022/07/19 03:58:30;;;;;;;2.13;2.03;;;22.90;54.40;;;;;;5133788;27;20176;-49
2022/07/19 04:00:55;;;;;;;2.20;2.00;;;22.90;54.40;;;;;;5133014;27;20164;-48
2022/07/19 04:03:22;;;;;;;2.22;2.08;;;22.90;54.40;;;;;;5133664;28;20278;-48
2022/07/19 04:05:47;;;;;;;2.92;2.25;;;22.90;54.40;;;;;;5133486;28;20830;-53
2022/07/19 04:08:14;;;;;;;2.38;2.17;;;22.90;54.40;;;;;;5133170;28;20172;-47
2022/07/19 04:10:40;;;;;;;2.10;2.00;;;22.80;54.30;;;;;;5133608;28;20218;-51
2022/07/19 04:13:05;;;;;;;2.10;2.00;;;22.90;54.40;;;;;;5132819;28;20657;-49
2022/07/19 04:15:31;;;;;;;3.05;2.28;;;22.90;54.40;;;;;;5133706;28;20177;-50
2022/07/19 04:17:56;;;;;;;2.20;2.00;;;22.90;55.00;;;;;;5133728;28;20642;-46
2022/07/19 04:20:22;;;;;;;2.42;2.22;;;22.90;54.40;;;;;;5132866;28;20329;-50
2022/07/19 04:22:48;;;;;;;2.38;2.17;;;22.90;54.30;;;;;;5133322;28;20745;-49
2022/07/19 04:25:13;;;;;;;2.60;2.30;;;22.90;54.20;;;;;;5135949;27;20243;-52
2022/07/19 04:27:39;;;;;;;2.33;2.15;;;22.90;54.20;;;;;;5136867;27;20179;-49
2022/07/19 04:30:05;;;;;;;2.40;2.22;;;22.90;54.30;;;;;;5137593;27;20176;-47
2022/07/19 04:32:31;;;;;;;2.58;2.38;;;22.90;54.40;;;;;;5137721;27;20204;-49
2022/07/19 04:34:57;;;;;;;2.30;2.10;;;22.90;54.30;;;;;;5136877;27;20184;-49
2022/07/19 04:37:22;;;;;;;2.47;2.28;;;22.90;54.20;;;;;;5137775;27;20176;-51
2022/07/19 04:39:48;;;;;;;2.58;2.25;;;22.90;54.20;;;;;;5137182;27;20224;-51
2022/07/19 04:42:13;;;;;;;2.50;2.15;;;22.90;54.20;;;;;;5136806;27;20172;-50
2022/07/19 04:44:39;;;;;;;2.20;2.00;;;22.90;54.20;;;;;;5137152;27;20208;-50
2022/07/19 04:47:04;;;;;;;2.42;2.22;;;22.90;54.20;;;;;;5137062;27;20177;-48
2022/07/19 04:49:30;;;;;;;2.10;1.90;;;22.90;54.20;;;;;;5136865;27;20206;-54
2022/07/19 04:51:55;;;;;;;2.60;2.10;;;22.90;54.20;;;;;;5137079;27;20514;-50
2022/07/19 04:54:21;;;;;;;2.28;2.08;;;22.90;54.20;;;;;;5136879;27;20168;-49
2022/07/19 04:56:46;;;;;;;2.47;2.28;;;22.90;54.20;;;;;;5136515;27;20172;-52
2022/07/19 04:59:12;;;;;;;2.50;2.25;;;22.90;54.40;;;;;;5137051;27;20176;-45
2022/07/19 05:01:37;;;;;;;2.25;2.10;;;22.90;54.20;;;;;;5136695;27;20176;-52
2022/07/19 05:04:03;;;;;;;1.98;1.88;;;22.90;54.30;;;;;;5136261;27;20224;-54
2022/07/19 05:06:29;;;;;;;2.22;1.90;;;22.90;54.20;;;;;;5137059;27;20225;-53
2022/07/19 05:08:56;;;;;;;2.10;1.90;;;22.90;54.20;;;;;;5136655;27;20271;-51
2022/07/19 05:11:21;;;;;;;2.53;2.22;;;22.90;54.30;;;;;;5136259;27;20646;-54
2022/07/19 05:13:47;;;;;;;1.83;1.73;;;22.90;54.20;;;;;;5136612;27;20183;-48
2022/07/19 05:16:12;;;;;;;1.92;1.83;;;22.90;54.20;;;;;;5136441;27;20643;-53
2022/07/19 05:18:38;;;;;;;2.13;1.90;;;22.90;54.20;;;;;;5136214;27;20176;-50
2022/07/19 05:21:04;;;;;;;2.33;2.13;;;22.90;54.20;;;;;;5136674;27;20642;-54
2022/07/19 05:23:29;;;;;;;2.08;1.98;;;22.90;54.20;;;;;;5136240;27;20204;-51
2022/07/19 05:25:55;;;;;;;2.42;2.22;;;22.90;54.20;;;;;;5136717;27;20189;-47
2022/07/19 05:28:20;;;;;;;2.03;1.80;;;23.00;54.30;;;;;;5136414;27;20180;-48
2022/07/19 05:30:46;;;;;;;2.15;2.05;;;22.90;54.20;;;;;;5135452;27;20963;-49
2022/07/19 05:33:11;;;;;;;2.20;1.80;;;22.90;54.20;;;;;;5136328;27;20259;-49
2022/07/19 05:35:38;;;;;;;2.08;1.75;;;22.90;54.20;;;;;;5135995;27;20614;-50
2022/07/19 05:38:03;;;;;;;2.58;2.38;;;23.00;54.30;;;;;;5135688;27;20654;-48
2022/07/19 05:40:29;;;;;;;2.08;1.95;;;23.00;54.20;;;;;;5136383;27;20180;-50
2022/07/19 05:42:54;;;;;;;1.88;1.77;;;23.00;54.20;;;;;;5135226;27;20205;-49
2022/07/19 05:45:20;;;;;;;1.70;1.60;;;23.00;54.20;;;;;;5135863;27;20200;-50
2022/07/19 05:47:45;;;;;;;1.95;1.85;;;23.00;54.30;;;;;;5136102;27;20255;-50
2022/07/19 05:50:11;;;;;;;2.30;1.90;;;23.00;54.20;;;;;;5135980;27;20182;-51
2022/07/19 05:52:36;;;;;;;2.15;1.95;;;23.00;54.20;;;;;;5135550;27;20169;-51
2022/07/19 05:55:02;;;;;;;1.80;1.70;;;23.00;54.20;;;;;;5135619;27;20537;-50
2022/07/19 05:57:28;;;;;;;2.25;2.05;;;22.90;54.20;;;;;;5135706;27;20188;-46
2022/07/19 05:59:53;;;;;;;1.98;1.88;;;22.90;54.20;;;;;;5135179;27;20184;-46
2022/07/19 06:02:19;;;;;;;2.88;2.30;;;22.90;54.20;;;;;;5135739;27;20164;-49
2022/07/19 06:04:45;;;;;;;2.20;2.00;;;23.00;54.20;;;;;;5135438;27;20216;-49
2022/07/19 06:07:10;;;;;;;2.13;1.92;;;23.00;54.20;;;;;;5135557;27;20176;-50
2022/07/19 06:09:36;;;;;;;2.30;2.10;;;23.00;54.20;;;;;;5135718;27;20201;-49
2022/07/19 06:12:01;;;;;;;2.67;2.10;;;23.00;54.20;;;;;;5135000;27;20221;-49
2022/07/19 06:14:27;;;;;;;2.30;2.08;;;23.00;54.30;;;;;;5134943;27;20887;-51
2022/07/19 06:16:53;;;;;;;2.05;1.90;;;23.00;54.30;;;;;;5135513;27;20271;-50
2022/07/19 06:19:19;;;;;;;3.50;2.17;;;23.00;54.50;;;;;;5135541;27;20271;-53
2022/07/19 06:21:44;;;;;;;2.10;2.00;;;23.00;54.50;;;;;;5134824;27;20188;-50
2022/07/19 06:24:10;;;;;;;2.00;1.88;;;23.00;54.60;;;;;;5135173;27;20285;-48
2022/07/19 06:26:35;;;;;;;2.42;1.77;;;23.00;54.50;;;;;;5135175;27;20592;-46
2022/07/19 06:29:01;;;;;;;4.10;2.17;;;23.10;54.80;;;;;;5134537;27;20204;-45
2022/07/19 06:31:27;;;;;;;2.33;1.70;;;23.00;54.60;;;;;;5135563;27;20661;-49
2022/07/19 06:33:52;;;;;;;2.20;1.77;;;23.00;54.60;;;;;;5134230;27;20195;-47
2022/07/19 06:36:18;;;;;;;3.13;1.85;;;23.10;54.70;;;;;;5135377;27;20610;-50
2022/07/19 06:38:43;;;;;;;2.38;2.17;;;23.10;54.70;;;;;;5134769;27;20267;-49
2022/07/19 06:41:10;;;;;;;2.72;2.17;;;23.10;54.80;;;;;;5134627;27;20176;-51
2022/07/19 06:43:35;;;;;;;2.67;2.03;;;23.10;54.70;;;;;;5134852;27;20204;-49
2022/07/19 06:46:01;;;;;;;3.70;2.38;;;23.10;54.70;;;;;;5134755;27;20179;-51
2022/07/19 06:48:26;;;;;;;2.38;2.03;;;23.10;54.70;;;;;;5133507;27;20180;-47
2022/07/19 06:50:52;;;;;;;3.65;2.20;;;23.10;54.70;;;;;;5134547;27;20626;-51
2022/07/19 06:53:18;;;;;;;2.58;2.33;;;23.10;54.70;;;;;;5134513;27;20189;-51
2022/07/19 06:55:44;;;;;;;3.78;2.00;;;23.10;54.60;;;;;;5134064;27;20196;-48
2022/07/19 06:58:09;;;;;;;5.50;2.40;;;23.10;54.60;;;;;;5134567;27;20279;-47
2022/07/19 07:00:35;;;;;;;1.98;1.77;;;23.10;54.60;;;;;;5134685;27;20631;-47
2022/07/19 07:03:00;;;;;;;3.20;2.33;;;23.10;54.60;;;;;;5133955;27;20201;-46
2022/07/19 07:05:26;;;;;;;3.47;2.15;;;23.10;54.60;;;;;;5134844;27;20164;-51
2022/07/19 07:07:53;;;;;;;3.63;2.08;;;23.10;54.50;;;;;;5134187;27;20187;-49
2022/07/19 07:10:19;;;;;;;3.58;1.98;;;23.10;54.50;;;;;;5133881;27;20175;-48
2022/07/19 07:12:44;;;;;;;5.07;2.20;;;23.10;54.50;;;;;;5134166;27;20221;-53
2022/07/19 07:15:10;;;;;;;3.25;2.20;;;23.10;54.50;;;;;;5134040;27;20553;-48
2022/07/19 07:17:36;;;;;;;5.35;2.20;;;23.10;54.50;;;;;;5134111;27;20172;-48
2022/07/19 07:20:02;;;;;;;2.97;2.10;;;23.10;54.50;;;;;;5134217;27;20583;-53
2022/07/19 07:22:27;;;;;;;4.13;2.30;;;23.10;54.50;;;;;;5134052;27;20197;-49
2022/07/19 07:24:53;;;;;;;3.35;2.30;;;23.10;55.10;;;;;;5133589;27;20184;-50
2022/07/19 07:27:18;;;;;;;4.38;2.20;;;23.10;54.80;;;;;;5134097;27;20184;-51
2022/07/19 07:29:44;;;;;;;3.00;2.15;;;23.10;55.10;;;;;;5133803;27;20529;-49
2022/07/19 07:32:09;;;;;;;7.88;2.40;;;23.10;55.20;;;;;;5133577;27;20649;-48
2022/07/19 07:34:35;;;;;;;2.60;2.20;;;23.20;55.70;;;;;;5134126;27;20184;-50
2022/07/19 07:37:01;;;;;;;4.30;2.20;;;23.20;55.60;;;;;;5133711;27;20168;-52
2022/07/19 07:39:26;;;;;;;5.38;2.40;;;23.20;55.70;;;;;;5133746;27;20639;-47
2022/07/19 07:41:52;;;;;;;6.32;2.30;;;23.20;55.70;;;;;;5133464;27;20183;-52
2022/07/19 07:44:17;;;;;;;4.70;2.33;;;23.20;56.00;;;;;;5133621;27;20220;-46
2022/07/19 07:46:43;;;;;;;3.22;2.50;;;23.20;56.20;;;;;;5133933;27;20168;-49
2022/07/19 07:49:08;;;;;;;3.75;2.33;;;23.20;55.80;;;;;;5133552;27;20176;-49
2022/07/19 07:51:34;;;;;;;4.25;2.25;;;23.20;55.60;;;;;;5133414;27;20631;-49
2022/07/19 07:54:00;;;;;;;5.90;2.65;;;23.20;56.10;;;;;;5133586;27;20168;-51
2022/07/19 07:56:25;;;;;;;2.53;2.33;;;23.20;55.50;;;;;;5133587;27;20301;-47
2022/07/19 07:58:51;;;;;;;3.80;2.30;;;23.20;55.30;;;;;;5132876;27;20527;-48
2022/07/19 08:01:17;;;;;;;4.38;2.33;;;23.20;55.30;;;;;;5133935;27;20168;-50
2022/07/19 08:03:42;;;;;;;5.20;2.78;;;23.20;55.30;;;;;;5133227;27;20232;-46
2022/07/19 08:06:08;;;;;;;3.28;2.60;;;23.20;55.20;;;;;;5133141;28;20176;-51
2022/07/19 08:08:34;;;;;;;3.25;2.55;;;23.20;55.30;;;;;;5133793;28;20229;-50
2022/07/19 08:10:59;;;;;;;2.55;2.35;;;23.20;55.20;;;;;;5133248;28;20618;-51
2022/07/19 08:13:25;;;;;;;4.43;2.50;;;23.20;55.30;;;;;;5133371;28;20180;-51
2022/07/19 08:15:50;;;;;;;5.07;2.40;;;23.20;55.30;;;;;;5133498;28;20165;-50
2022/07/19 08:18:16;;;;;;;3.42;2.38;;;23.20;55.30;;;;;;5133236;28;20181;-48
2022/07/19 08:20:42;;;;;;;2.47;2.15;;;23.20;55.30;;;;;;5133007;28;20687;-47
2022/07/19 08:23:07;;;;;;;5.25;3.20;;;23.20;55.60;;;;;;5133448;28;20200;-51
2022/07/19 08:25:34;;;;;;;5.47;2.42;;;23.30;56.00;;;;;;5133134;28;20164;-50
2022/07/19 08:27:59;;;;;;;3.85;2.60;;;23.30;56.10;;;;;;5132883;28;20173;-48
2022/07/19 08:30:25;;;;;;;5.15;2.70;;;23.30;55.80;;;;;;5133433;28;20180;-46
2022/07/19 08:32:50;;;;;;;4.07;2.30;;;23.30;55.80;;;;;;5132844;28;20180;-46
2022/07/19 08:35:16;;;;;;;5.22;3.20;;;23.40;55.90;;;;;;5132914;28;20260;-47
2022/07/19 08:37:41;;;;;;;5.35;2.75;;;23.40;55.90;;;;;;5133284;28;20172;-47
2022/07/19 08:40:07;;;;;;;5.55;2.60;;;23.40;56.00;;;;;;5133067;28;20175;-46
2022/07/19 08:42:33;;;;;;;4.15;2.80;;;23.40;55.90;;;;;;5132993;28;20180;-50
2022/07/19 08:45:00;;;;;;;4.35;2.50;;;23.50;56.10;;;;;;5133099;28;20647;-50
2022/07/19 08:47:26;;;;;;;6.72;2.45;;;23.50;55.90;;;;;;5133056;28;20251;-54
2022/07/19 08:49:51;;;;;;;6.13;2.47;;;23.40;55.90;;;;;;5097981;28;20309;-51
2022/07/19 08:52:17;;;;;;;7.10;2.80;;;23.50;55.90;;;;;;5133185;28;20180;-50
2022/07/19 08:54:42;;;;;;;4.80;2.58;;;23.50;55.90;;;;;;5097357;28;20164;-49
2022/07/19 08:59:52;;;;;;;4.80;2.38;;;23.50;55.80;;;;;;5132890;28;20180;-54
2022/07/19 09:02:17;;;;;;;4.95;2.70;;;23.50;55.70;;;;;;5132506;28;20176;-51
2022/07/19 09:04:43;;;;;;;6.47;2.65;;;23.50;55.70;;;;;;5132612;28;20303;-51
2022/07/19 09:07:08;;;;;;;3.63;2.42;;;23.50;55.70;;;;;;5114544;28;20527;-53
2022/07/19 09:09:36;;;;;;;4.50;2.60;;;23.50;55.70;;;;;;5132886;27;20626;-50
2022/07/19 09:12:02;;;;;;;5.13;2.78;;;23.60;55.90;;;;;;5136267;27;20172;-53
2022/07/19 09:14:35;;;;;;;3.60;2.40;;;23.60;55.90;;;;;;5136634;27;20550;-54
2022/07/19 09:17:06;;;;;;;5.93;2.50;;;23.60;55.80;;;;;;5136037;27;20176;-51
2022/07/19 09:19:36;;;;;;;14.02;3.10;;;23.60;55.80;;;;;;5136697;27;20203;-51
2022/07/19 09:22:06;;;;;;;3.75;2.30;;;23.70;55.90;;;;;;5136353;27;20297;-52
2022/07/19 09:24:34;;;;;;;4.03;2.70;;;23.70;55.90;;;;;;5135976;27;20619;-53
2022/07/19 09:27:05;;;;;;;3.88;2.30;;;23.60;55.70;;;;;;5136174;27;20173;-52
2022/07/19 09:29:31;;;;;;;4.85;2.75;;;23.70;55.80;;;;;;5136535;27;20181;-51
2022/07/19 09:32:10;;;;;;;4.07;2.88;;;23.70;55.80;;;;;;5135841;27;20206;-52
2022/07/19 09:34:48;;;;;;;7.68;2.67;;;23.70;55.70;;;;;;5136436;27;20168;-51
2022/07/19 09:37:14;;;;;;;5.43;2.45;;;23.70;55.70;;;;;;5135854;27;20638;-54
2022/07/19 09:39:47;;;;;;;5.60;2.90;;;23.70;55.60;;;;;;5136206;27;20185;-53
2022/07/19 09:42:23;;;;;;;4.35;2.33;;;23.70;55.50;;;;;;5136155;27;20168;-53
2022/07/19 09:44:57;;;;;;;5.00;2.63;;;23.80;55.50;;;;;;5135163;27;20852;-51
2022/07/19 09:47:33;;;;;;;6.30;2.78;;;23.80;55.40;;;;;;5136245;27;20643;-51
2022/07/19 09:49:59;;;;;;;4.00;2.53;;;23.80;55.30;;;;;;5135589;27;20634;-48
2022/07/19 09:52:25;;;;;;;5.47;2.65;;;23.80;55.30;;;;;;5135546;27;20654;-47
2022/07/19 09:54:51;;;;;;;4.97;2.13;;;23.90;55.30;;;;;;5136004;27;20168;-47
2022/07/19 09:57:16;;;;;;;6.10;3.20;;;23.90;55.20;;;;;;5135627;27;20179;-47
2022/07/19 09:59:46;;;;;;;4.43;2.53;;;23.90;55.20;;;;;;5116991;27;20172;-48
2022/07/19 10:02:12;;;;;;;5.75;2.50;;;23.90;55.10;;;;;;5117811;27;20172;-45
2022/07/19 10:04:38;;;;;;;3.50;2.58;;;23.90;55.10;;;;;;5135325;27;20580;-47
2022/07/19 10:07:03;;;;;;;3.47;2.35;;;23.90;55.10;;;;;;5116962;27;20180;-50
2022/07/19 10:09:29;;;;;;;3.15;2.53;;;23.90;55.00;;;;;;5117491;27;20170;-48
2022/07/19 10:11:55;;;;;;;5.47;2.17;;;23.90;55.00;;;;;;5099682;27;20177;-48
2022/07/19 10:14:20;;;;;;;4.13;2.40;;;23.90;55.00;;;;;;5117586;27;20568;-50
2022/07/19 10:16:51;;;;;;;2.92;2.30;;;23.90;55.00;;;;;;5135379;27;20164;-49
2022/07/19 10:19:30;;;;;;;3.72;1.98;;;23.90;54.90;;;;;;5116927;27;20625;-49
2022/07/19 10:21:56;;;;;;;4.45;2.33;;;24.00;54.90;;;;;;5100950;27;20237;-48
2022/07/19 10:24:44;;;;;;;7.32;2.88;;;24.00;54.90;;;;;;5116903;27;20207;-49
2022/07/19 10:27:11;;;;;;;5.47;2.22;;;24.00;54.90;;;;;;5134944;27;20176;-46
2022/07/19 10:29:36;;;;;;;4.47;2.53;;;24.00;54.80;;;;;;5135521;27;20255;-50
2022/07/19 10:32:06;;;;;;;4.60;2.58;;;24.00;54.80;;;;;;5099690;27;20585;-46
2022/07/19 10:34:32;;;;;;;8.48;3.38;;;24.00;54.60;;;;;;5134735;27;20177;-50
2022/07/19 10:36:57;;;;;;;9.00;2.83;;;24.00;54.60;;;;;;5135214;27;20222;-51
2022/07/19 10:39:33;;;;;;;4.00;2.40;;;24.10;54.60;;;;;;5135085;27;20245;-46
2022/07/19 10:42:18;;;;;;;5.18;2.42;;;24.00;54.50;;;;;;5134478;27;20202;-51
2022/07/19 10:44:56;;;;;;;6.38;2.65;;;24.10;54.50;;;;;;5134933;27;20212;-47
2022/07/19 10:47:22;;;;;;;5.05;2.60;;;24.10;54.50;;;;;;5134395;27;20173;-48
2022/07/19 10:49:47;;;;;;;5.28;2.50;;;24.10;54.40;;;;;;5134995;27;20176;-54
2022/07/19 10:52:28;;;;;;;6.15;2.97;;;24.10;54.40;;;;;;5134695;27;20169;-51
2022/07/19 10:55:16;;;;;;;8.82;2.72;;;24.10;54.40;;;;;;5134195;27;20164;-50
2022/07/19 10:57:42;;;;;;;4.97;2.17;;;24.10;54.30;;;;;;5134460;27;20172;-51
2022/07/19 11:00:24;;;;;;;7.68;2.78;;;24.10;54.40;;;;;;5134428;27;20511;-52
2022/07/19 11:02:50;;;;;;;5.70;2.60;;;24.10;54.30;;;;;;5134059;27;20563;-50
2022/07/19 11:05:29;;;;;;;4.07;2.58;;;24.20;55.10;;;;;;5115925;27;20242;-53
2022/07/19 11:07:55;;;;;;;6.47;2.42;;;24.20;54.50;;;;;;5134398;27;20179;-47
2022/07/19 11:10:29;;;;;;;6.13;2.50;;;24.20;54.50;;;;;;5134263;27;20175;-52
2022/07/19 11:12:56;;;;;;;4.80;2.72;;;24.20;54.50;;;;;;5134330;27;20196;-51
2022/07/19 11:15:22;;;;;;;5.63;3.13;;;24.20;54.50;;;;;;5134009;27;20173;-49
2022/07/19 11:17:56;;;;;;;5.55;2.58;;;24.20;54.50;;;;;;5134226;27;20646;-50
2022/07/19 11:20:29;;;;;;;7.03;2.45;;;24.20;54.40;;;;;;5134138;27;20180;-51
2022/07/19 11:22:57;;;;;;;4.10;2.38;;;24.20;54.40;;;;;;5133696;27;20256;-49
2022/07/19 11:25:28;;;;;;;5.10;2.63;;;24.30;54.40;;;;;;5134112;27;20182;-49
2022/07/19 11:27:53;;;;;;;7.07;2.85;;;24.30;54.30;;;;;;5133968;27;20247;-49
2022/07/19 11:30:20;;;;;;;6.53;2.67;;;24.30;54.30;;;;;;5133343;27;21013;-50
2022/07/19 11:32:54;;;;;;;6.05;2.72;;;24.30;54.30;;;;;;5133494;27;20267;-54
2022/07/19 11:35:19;;;;;;;4.93;2.50;;;24.30;54.40;;;;;;5133677;27;20176;-52
2022/07/19 11:37:45;;;;;;;6.75;2.92;;;24.30;54.30;;;;;;5133463;27;20176;-50
2022/07/19 11:40:11;;;;;;;5.65;2.22;;;24.30;54.30;;;;;;5134122;27;20169;-48
2022/07/19 11:42:38;;;;;;;7.63;2.67;;;24.30;54.30;;;;;;5133794;27;20176;-49
2022/07/19 11:45:23;;;;;;;12.35;3.22;;;24.30;54.20;;;;;;5133509;27;20247;-52
2022/07/19 11:47:53;;;;;;;5.55;2.75;;;24.30;54.30;;;;;;5133325;27;20184;-53
2022/07/19 11:50:21;;;;;;;7.50;2.70;;;24.30;54.20;;;;;;5133260;27;20650;-51
2022/07/19 11:52:50;;;;;;;5.32;2.67;;;24.40;54.20;;;;;;5133784;27;20184;-48
2022/07/19 11:55:16;;;;;;;4.50;2.65;;;24.30;54.10;;;;;;5133723;27;20199;-51
2022/07/19 11:57:42;;;;;;;5.22;2.63;;;24.40;54.10;;;;;;5133203;27;20251;-53
2022/07/19 12:00:09;;;;;;;5.50;2.30;;;24.30;54.00;;;;;;5133745;27;20214;-47
2022/07/19 12:02:57;;;;;;;5.25;2.60;;;24.40;54.10;;;;;;5133808;27;20168;-52
2022/07/19 12:05:26;;;;;;;4.60;2.58;;;24.40;54.10;;;;;;5133062;27;20216;-53
2022/07/19 12:07:52;;;;;;;5.55;2.83;;;24.30;54.00;;;;;;5133665;28;20192;-53
2022/07/19 12:10:40;;;;;;;4.20;2.58;;;24.40;54.10;;;;;;5133364;28;20199;-53
2022/07/19 12:13:07;;;;;;;3.50;2.53;;;24.30;54.20;;;;;;5133285;28;20176;-52
2022/07/19 12:16:08;;;;;;;3.17;2.40;;;24.30;54.00;;;;;;5133616;28;20230;-53
2022/07/19 12:18:46;;;;;;;5.43;2.70;;;24.30;54.00;;;;;;5108317;28;20641;-51
2022/07/19 12:21:23;;;;;;;4.82;2.70;;;24.30;54.00;;;;;;5133759;28;20249;-51
2022/07/19 12:24:08;;;;;;;6.10;2.72;;;24.30;54.00;;;;;;5133364;28;20212;-53
2022/07/19 12:26:34;;;;;;;6.40;3.15;;;24.30;54.00;;;;;;5133131;28;20229;-52
2022/07/19 12:28:59;;;;;;;3.38;2.38;;;24.30;54.00;;;;;;5133418;28;20161;-50
2022/07/19 12:31:25;;;;;;;4.22;2.60;;;24.30;54.00;;;;;;5133271;28;20168;-52
2022/07/19 12:34:00;;;;;;;4.13;2.40;;;24.40;54.00;;;;;;5114834;28;20173;-51
2022/07/19 12:36:32;;;;;;;5.05;2.90;;;24.40;53.90;;;;;;5133739;28;20192;-51
2022/07/19 12:38:58;;;;;;;4.25;2.33;;;24.40;53.90;;;;;;5133270;28;20219;-50
2022/07/19 12:41:23;;;;;;;4.43;2.30;;;24.40;53.80;;;;;;5132954;28;20208;-53
2022/07/19 12:43:49;;;;;;;3.85;2.38;;;24.40;53.80;;;;;;5132897;28;20236;-50
2022/07/19 12:46:14;;;;;;;3.13;2.38;;;24.50;53.70;;;;;;5135866;27;20177;-49
2022/07/19 12:48:40;;;;;;;2.60;2.40;;;24.50;53.70;;;;;;5136948;27;20172;-49